Time;durP1;ratioP1;P1;durP2;ratioP2;P2;SDS_P1;SDS_P2;PMS_P1;PMS_P2;Temp;Humidity;BMP_temperature;BMP_pressure;BME280_temperature;BME280_humidity;BME280_pressure;Samples;Min_cycle;Max_cycle;Signal;HPM_P1;HPM_P2
2023/01/18 00:02:08;;;;;;;7.23;4.70;;;;;;;;;;4999592;28;20206;-61
2023/01/18 00:04:35;;;;;;;7.20;5.00;;;;;;;;;;4999922;28;20208;-59
2023/01/18 00:07:04;;;;;;;6.80;5.10;;;;;;;;;;4998653;28;20216;-60
2023/01/18 00:09:31;;;;;;;5.07;4.03;;;;;;;;;;5006517;28;20207;-61
2023/01/18 00:11:58;;;;;;;5.60;4.00;;;;;;;;;;5000428;28;20208;-60
2023/01/18 00:14:25;;;;;;;5.20;4.30;;;;;;;;;;5001167;28;20193;-62
2023/01/18 00:16:52;;;;;;;5.93;4.50;;;;;;;;;;4997659;28;20205;-61
2023/01/18 00:19:19;;;;;;;7.03;4.90;;;;;;;;;;4997553;28;20233;-61
2023/01/18 00:21:47;;;;;;;5.53;4.57;;;;;;;;;;5000746;28;20248;-61
2023/01/18 00:24:15;;;;;;;7.57;4.90;;;;;;;;;;5003563;28;20217;-61
2023/01/18 00:26:43;;;;;;;6.33;5.33;;;;;;;;;;5003769;28;20197;-58
2023/01/18 00:29:10;;;;;;;7.93;5.90;;;;;;;;;;4999719;28;20325;-61
2023/01/18 00:31:38;;;;;;;8.43;5.90;;;;;;;;;;5000490;28;20212;-61
2023/01/18 00:34:05;;;;;;;6.00;4.73;;;;;;;;;;4994400;28;20228;-61
2023/01/18 00:36:33;;;;;;;5.00;4.50;;;;;;;;;;4997112;28;20204;-62
2023/01/18 00:39:00;;;;;;;5.97;4.30;;;;;;;;;;4995362;28;20344;-61
2023/01/18 00:41:29;;;;;;;5.60;3.80;;;;;;;;;;4994364;28;20241;-60
2023/01/18 00:43:55;;;;;;;5.53;3.83;;;;;;;;;;4992504;28;20212;-61
2023/01/18 00:46:23;;;;;;;4.37;3.67;;;;;;;;;;4994831;28;20307;-61
2023/01/18 00:48:51;;;;;;;5.03;4.10;;;;;;;;;;4996506;28;20201;-60
2023/01/18 00:51:19;;;;;;;4.07;3.50;;;;;;;;;;4987554;28;20216;-61
2023/01/18 00:53:46;;;;;;;5.10;3.50;;;;;;;;;;4995866;28;20197;-62
2023/01/18 00:56:14;;;;;;;4.93;3.90;;;;;;;;;;4995417;28;20465;-62
2023/01/18 00:58:42;;;;;;;4.93;3.93;;;;;;;;;;4993759;28;20216;-61
2023/01/18 01:01:10;;;;;;;5.70;3.77;;;;;;;;;;4996417;28;20228;-61
2023/01/18 01:06:44;;;;;;;5.23;3.50;;;;;;;;;;4968351;28;20209;-60
2023/01/18 01:09:12;;;;;;;3.93;3.50;;;;;;;;;;4993408;28;20209;-61
2023/01/18 01:11:39;;;;;;;4.03;3.23;;;;;;;;;;4990248;28;20214;-61
2023/01/18 01:27:52;;;;;;;4.87;3.30;;;;;;;;;;4990468;28;20224;-60
2023/01/18 01:30:20;;;;;;;4.10;3.10;;;;;;;;;;4995374;28;20197;-58
2023/01/18 01:32:48;;;;;;;5.07;3.53;;;;;;;;;;4992543;28;20205;-61
2023/01/18 01:35:15;;;;;;;3.03;2.70;;;;;;;;;;4992597;28;20201;-62
2023/01/18 01:37:42;;;;;;;3.40;3.10;;;;;;;;;;4993366;28;20201;-61
2023/01/18 01:40:10;;;;;;;4.60;3.47;;;;;;;;;;4993855;28;20205;-61
2023/01/18 01:42:37;;;;;;;3.60;3.10;;;;;;;;;;5001244;28;20209;-61
2023/01/18 01:45:05;;;;;;;4.83;3.10;;;;;;;;;;4993766;28;20209;-61
2023/01/18 01:47:36;;;;;;;4.53;3.50;;;;;;;;;;4992498;28;20325;-61
2023/01/18 01:50:08;;;;;;;4.70;3.40;;;;;;;;;;4996412;28;20200;-61
2023/01/18 01:52:37;;;;;;;4.37;3.30;;;;;;;;;;4993689;28;20201;-60
2023/01/18 01:55:08;;;;;;;6.13;3.30;;;;;;;;;;4994042;28;20212;-61
2023/01/18 01:57:37;;;;;;;5.30;3.73;;;;;;;;;;4990941;28;20202;-59
2023/01/18 02:00:06;;;;;;;5.17;3.53;;;;;;;;;;4994688;28;20216;-61
2023/01/18 02:02:35;;;;;;;3.67;3.37;;;;;;;;;;4993268;28;20208;-61
2023/01/18 02:05:03;;;;;;;3.97;3.40;;;;;;;;;;4992741;28;20439;-60
2023/01/18 02:07:30;;;;;;;4.97;3.77;;;;;;;;;;4993671;28;20296;-61
2023/01/18 02:09:58;;;;;;;3.70;3.30;;;;;;;;;;4992812;28;20204;-60
2023/01/18 02:12:25;;;;;;;4.23;3.60;;;;;;;;;;4996966;28;20284;-61
2023/01/18 02:14:53;;;;;;;4.83;3.83;;;;;;;;;;4992542;28;20208;-62
2023/01/18 02:17:27;;;;;;;4.77;3.53;;;;;;;;;;4993234;28;20204;-61
2023/01/18 02:20:18;;;;;;;5.47;3.70;;;;;;;;;;4988874;28;20221;-61
2023/01/18 02:22:51;;;;;;;4.93;3.70;;;;;;;;;;4991631;28;20290;-60
2023/01/18 02:25:29;;;;;;;4.10;3.70;;;;;;;;;;4991946;28;20212;-58
2023/01/18 02:28:06;;;;;;;4.80;3.40;;;;;;;;;;4997400;28;20205;-61
2023/01/18 02:30:37;;;;;;;4.63;3.50;;;;;;;;;;4992567;28;20307;-61
2023/01/18 02:33:06;;;;;;;3.97;3.43;;;;;;;;;;4989376;28;20592;-61
2023/01/18 02:35:37;;;;;;;3.83;3.47;;;;;;;;;;4990939;28;20225;-61
2023/01/18 02:38:08;;;;;;;4.27;3.70;;;;;;;;;;4989326;28;20213;-61
2023/01/18 02:40:40;;;;;;;5.60;3.90;;;;;;;;;;4993238;28;20213;-61
2023/01/18 02:48:42;;;;;;;6.90;4.13;;;;;;;;;;4998037;28;20243;-61
2023/01/18 02:51:10;;;;;;;6.43;3.60;;;;;;;;;;4999542;28;20201;-61
2023/01/18 02:53:39;;;;;;;3.53;3.23;;;;;;;;;;4995446;28;20227;-61
2023/01/18 02:56:09;;;;;;;4.23;3.80;;;;;;;;;;4997150;28;20210;-61
2023/01/18 02:58:40;;;;;;;4.43;3.83;;;;;;;;;;4996248;28;20211;-59
2023/01/18 03:01:08;;;;;;;5.43;3.50;;;;;;;;;;4999072;28;20229;-58
2023/01/18 03:03:36;;;;;;;5.03;3.67;;;;;;;;;;5000306;28;20204;-61
2023/01/18 03:06:04;;;;;;;5.73;4.17;;;;;;;;;;4998072;28;20220;-61
2023/01/18 03:08:35;;;;;;;5.00;3.87;;;;;;;;;;4993928;28;20213;-61
2023/01/18 03:11:03;;;;;;;5.00;4.40;;;;;;;;;;4995264;28;20204;-59
2023/01/18 03:13:45;;;;;;;6.17;3.90;;;;;;;;;;5001379;28;20198;-61
2023/01/18 03:16:15;;;;;;;4.30;3.90;;;;;;;;;;4993319;28;20263;-58
2023/01/18 03:21:25;;;;;;;6.10;4.27;;;;;;;;;;4996033;28;20252;-62
2023/01/18 03:23:52;;;;;;;5.03;4.30;;;;;;;;;;4995395;28;20210;-60
2023/01/18 03:26:20;;;;;;;5.33;4.10;;;;;;;;;;4994509;28;20209;-61
2023/01/18 03:34:27;;;;;;;6.13;4.37;;;;;;;;;;4994903;28;20359;-61
2023/01/18 03:36:56;;;;;;;8.03;5.17;;;;;;;;;;4996940;28;20236;-61
2023/01/18 03:39:27;;;;;;;5.43;4.63;;;;;;;;;;4993895;28;20201;-62
2023/01/18 03:41:56;;;;;;;4.93;4.43;;;;;;;;;;4998273;28;20232;-61
2023/01/18 03:44:26;;;;;;;4.73;4.20;;;;;;;;;;4997376;28;20215;-60
2023/01/18 03:46:54;;;;;;;5.93;4.70;;;;;;;;;;5000213;28;20209;-61
2023/01/18 03:49:22;;;;;;;6.97;5.00;;;;;;;;;;4998160;28;20205;-60
2023/01/18 03:51:51;;;;;;;5.80;4.67;;;;;;;;;;4996078;28;20201;-61
2023/01/18 03:54:21;;;;;;;6.17;4.80;;;;;;;;;;5003754;28;20212;-61
2023/01/18 03:56:51;;;;;;;5.70;4.50;;;;;;;;;;4995216;28;20207;-62
2023/01/18 03:59:19;;;;;;;7.50;4.87;;;;;;;;;;4998947;28;20292;-60
2023/01/18 04:01:47;;;;;;;6.03;4.43;;;;;;;;;;4993338;28;20225;-61
2023/01/18 04:04:16;;;;;;;6.20;4.77;;;;;;;;;;4991395;28;20264;-61
2023/01/18 04:06:43;;;;;;;5.33;4.80;;;;;;;;;;4992731;28;20213;-59
2023/01/18 04:09:11;;;;;;;6.27;4.70;;;;;;;;;;4993342;28;20201;-61
2023/01/18 04:11:38;;;;;;;6.27;4.73;;;;;;;;;;4993953;28;20209;-62
2023/01/18 04:14:06;;;;;;;5.60;4.73;;;;;;;;;;4994035;28;20203;-61
2023/01/18 04:16:33;;;;;;;5.90;4.80;;;;;;;;;;4999312;28;20193;-61
2023/01/18 04:19:00;;;;;;;6.30;4.47;;;;;;;;;;4991209;28;20202;-61
2023/01/18 04:21:29;;;;;;;4.30;3.90;;;;;;;;;;5003800;28;20235;-61
2023/01/18 04:23:56;;;;;;;7.93;5.00;;;;;;;;;;4996764;28;20208;-61
2023/01/18 04:26:24;;;;;;;8.33;5.13;;;;;;;;;;5006322;28;20201;-62
2023/01/18 04:28:51;;;;;;;7.07;4.53;;;;;;;;;;4989912;28;20212;-60
2023/01/18 04:31:19;;;;;;;7.93;5.60;;;;;;;;;;4998661;28;20211;-61
2023/01/18 04:33:50;;;;;;;5.50;4.90;;;;;;;;;;4995401;28;20210;-60
2023/01/18 04:36:17;;;;;;;7.33;4.83;;;;;;;;;;4998314;28;20209;-62
2023/01/18 04:38:45;;;;;;;7.97;4.90;;;;;;;;;;4990190;28;20216;-62
2023/01/18 04:41:13;;;;;;;8.03;5.10;;;;;;;;;;4998506;28;20228;-60
2023/01/18 04:43:40;;;;;;;6.40;5.20;;;;;;;;;;5001367;28;20211;-61
2023/01/18 04:46:07;;;;;;;8.47;5.53;;;;;;;;;;4996819;28;20212;-62
2023/01/18 04:48:34;;;;;;;9.70;5.90;;;;;;;;;;4995984;28;20221;-61
2023/01/18 04:51:01;;;;;;;7.07;6.17;;;;;;;;;;4999297;28;20281;-61
2023/01/18 04:53:28;;;;;;;8.87;6.83;;;;;;;;;;4998343;28;20205;-60
2023/01/18 04:55:57;;;;;;;8.63;7.53;;;;;;;;;;4995046;28;20214;-59
2023/01/18 04:58:24;;;;;;;11.27;8.17;;;;;;;;;;5000419;28;20216;-62
2023/01/18 05:00:51;;;;;;;11.43;8.87;;;;;;;;;;4996600;28;20213;-61
2023/01/18 05:03:19;;;;;;;17.23;10.70;;;;;;;;;;4997586;28;20194;-61
2023/01/18 05:05:46;;;;;;;18.80;10.63;;;;;;;;;;5005571;28;20229;-61
2023/01/18 05:08:13;;;;;;;20.67;11.90;;;;;;;;;;5001156;28;20213;-62
2023/01/18 05:10:40;;;;;;;19.00;10.87;;;;;;;;;;5001596;28;20216;-58
2023/01/18 05:13:08;;;;;;;14.97;9.40;;;;;;;;;;4997778;28;20277;-62
2023/01/18 05:15:36;;;;;;;13.43;8.47;;;;;;;;;;5000824;28;20285;-60
2023/01/18 05:18:04;;;;;;;12.87;7.67;;;;;;;;;;5004180;28;20264;-62
2023/01/18 05:20:31;;;;;;;11.57;8.00;;;;;;;;;;5004671;28;20209;-61
2023/01/18 05:22:58;;;;;;;13.53;7.50;;;;;;;;;;5000053;28;20240;-61
2023/01/18 05:25:25;;;;;;;11.37;6.43;;;;;;;;;;4995435;28;20215;-61
2023/01/18 05:27:53;;;;;;;9.67;6.27;;;;;;;;;;4996922;28;20213;-62
2023/01/18 05:30:22;;;;;;;9.40;6.30;;;;;;;;;;5000135;28;20213;-61
2023/01/18 05:32:49;;;;;;;7.07;5.43;;;;;;;;;;4995850;28;20261;-57
2023/01/18 05:35:16;;;;;;;8.70;6.50;;;;;;;;;;4999487;28;20205;-60
2023/01/18 05:37:43;;;;;;;9.57;5.47;;;;;;;;;;4999286;28;20204;-61
2023/01/18 05:40:12;;;;;;;10.37;6.70;;;;;;;;;;5005456;28;20295;-61
2023/01/18 05:42:39;;;;;;;10.23;7.37;;;;;;;;;;4995208;28;20289;-61
2023/01/18 05:45:07;;;;;;;9.33;7.03;;;;;;;;;;4995277;28;20220;-62
2023/01/18 05:47:35;;;;;;;13.30;6.77;;;;;;;;;;4996258;28;20213;-61
2023/01/18 05:50:02;;;;;;;11.33;6.57;;;;;;;;;;4997058;28;20201;-60
2023/01/18 05:52:29;;;;;;;13.80;6.83;;;;;;;;;;4991352;28;20197;-61
2023/01/18 05:54:56;;;;;;;9.83;7.87;;;;;;;;;;4993050;28;20200;-62
2023/01/18 05:57:24;;;;;;;8.97;7.37;;;;;;;;;;4995894;28;20446;-62
2023/01/18 05:59:51;;;;;;;10.87;9.10;;;;;;;;;;4987321;28;20291;-61
2023/01/18 06:02:18;;;;;;;10.00;8.10;;;;;;;;;;4999821;28;20334;-61
2023/01/18 06:04:47;;;;;;;12.43;7.07;;;;;;;;;;4996330;28;20235;-61
2023/01/18 06:07:15;;;;;;;9.57;7.33;;;;;;;;;;5002497;28;20208;-61
2023/01/18 06:09:42;;;;;;;8.87;6.90;;;;;;;;;;4991410;28;20288;-61
2023/01/18 06:12:09;;;;;;;10.30;7.00;;;;;;;;;;4995315;28;20279;-61
2023/01/18 06:14:36;;;;;;;9.30;6.73;;;;;;;;;;4998325;28;20231;-61
2023/01/18 06:17:04;;;;;;;7.60;6.60;;;;;;;;;;4996475;28;20189;-61
2023/01/18 06:19:31;;;;;;;9.77;7.00;;;;;;;;;;4998087;28;20217;-61
2023/01/18 06:21:59;;;;;;;10.63;6.97;;;;;;;;;;4998944;28;20240;-61
2023/01/18 06:24:26;;;;;;;8.40;6.43;;;;;;;;;;5004893;28;20201;-62
2023/01/18 06:26:53;;;;;;;11.13;7.67;;;;;;;;;;5000114;28;20296;-61
2023/01/18 06:29:21;;;;;;;13.03;7.90;;;;;;;;;;5004184;28;20220;-62
2023/01/18 06:31:48;;;;;;;12.90;8.77;;;;;;;;;;4995763;28;20208;-61
2023/01/18 06:34:15;;;;;;;11.90;9.47;;;;;;;;;;5000611;28;20193;-61
2023/01/18 06:36:44;;;;;;;19.13;11.13;;;;;;;;;;4998189;28;20217;-62
2023/01/18 06:39:12;;;;;;;15.23;10.93;;;;;;;;;;4997837;28;20305;-58
2023/01/18 06:41:39;;;;;;;13.07;9.87;;;;;;;;;;5001687;28;20254;-61
2023/01/18 06:44:06;;;;;;;11.40;8.50;;;;;;;;;;4999802;28;20202;-61
2023/01/18 06:46:33;;;;;;;10.30;8.40;;;;;;;;;;5002842;28;20209;-61
2023/01/18 06:49:01;;;;;;;9.77;7.67;;;;;;;;;;5002620;28;20209;-59
2023/01/18 06:51:28;;;;;;;10.57;8.07;;;;;;;;;;5003924;28;20197;-61
2023/01/18 06:53:55;;;;;;;11.70;7.60;;;;;;;;;;5016646;28;20210;-62
2023/01/18 06:56:25;;;;;;;9.33;7.57;;;;;;;;;;5006554;28;20212;-60
2023/01/18 06:58:54;;;;;;;11.03;7.80;;;;;;;;;;5006097;28;20236;-61
2023/01/18 07:01:21;;;;;;;14.47;8.50;;;;;;;;;;4995373;28;20217;-62
2023/01/18 07:03:49;;;;;;;10.47;8.30;;;;;;;;;;4994222;28;20213;-62
2023/01/18 07:06:16;;;;;;;13.73;8.67;;;;;;;;;;5004562;28;20221;-62
2023/01/18 07:08:43;;;;;;;13.83;8.40;;;;;;;;;;5000808;28;20224;-61
2023/01/18 07:11:11;;;;;;;11.10;8.13;;;;;;;;;;5004491;28;20213;-61
2023/01/18 07:13:42;;;;;;;11.90;8.03;;;;;;;;;;5008960;28;20205;-62
2023/01/18 07:16:16;;;;;;;11.03;7.53;;;;;;;;;;4997193;28;20260;-60
2023/01/18 07:18:45;;;;;;;13.77;8.60;;;;;;;;;;4998363;28;20211;-57
2023/01/18 07:21:13;;;;;;;11.33;8.33;;;;;;;;;;4996480;28;20208;-61
2023/01/18 07:23:43;;;;;;;13.60;8.67;;;;;;;;;;4999880;28;20231;-60
2023/01/18 07:26:14;;;;;;;14.63;9.70;;;;;;;;;;5004759;28;20201;-61
2023/01/18 07:28:46;;;;;;;14.53;9.07;;;;;;;;;;5004681;28;20200;-61
2023/01/18 07:31:14;;;;;;;10.43;8.20;;;;;;;;;;5001232;28;20220;-61
2023/01/18 07:33:41;;;;;;;13.33;8.50;;;;;;;;;;4999642;28;20201;-61
2023/01/18 07:36:09;;;;;;;14.37;9.60;;;;;;;;;;5001517;28;20215;-61
2023/01/18 07:38:37;;;;;;;15.10;9.27;;;;;;;;;;5000266;28;20206;-61
2023/01/18 07:41:06;;;;;;;13.43;9.53;;;;;;;;;;5004401;28;20251;-61
2023/01/18 07:43:36;;;;;;;12.00;9.43;;;;;;;;;;5003591;28;20201;-58
2023/01/18 07:46:05;;;;;;;14.50;9.37;;;;;;;;;;5003218;28;20209;-61
2023/01/18 07:48:32;;;;;;;13.43;11.03;;;;;;;;;;5002098;28;20228;-62
2023/01/18 07:51:00;;;;;;;16.97;9.83;;;;;;;;;;5002847;28;20201;-61
2023/01/18 07:53:28;;;;;;;14.37;9.43;;;;;;;;;;4995161;28;20212;-62
2023/01/18 07:55:59;;;;;;;13.17;9.43;;;;;;;;;;5003564;28;20213;-61
2023/01/18 07:58:26;;;;;;;16.50;9.73;;;;;;;;;;5001275;28;20210;-61
2023/01/18 08:00:53;;;;;;;14.93;10.00;;;;;;;;;;4999915;28;20299;-61
2023/01/18 08:03:22;;;;;;;12.43;9.83;;;;;;;;;;5000776;28;20224;-61
2023/01/18 08:05:49;;;;;;;13.27;10.07;;;;;;;;;;4999316;28;20827;-58
2023/01/18 08:08:17;;;;;;;12.20;9.63;;;;;;;;;;5001271;28;20201;-61
2023/01/18 08:10:45;;;;;;;12.80;9.17;;;;;;;;;;5005453;28;20240;-61
2023/01/18 08:13:12;;;;;;;13.37;8.90;;;;;;;;;;5003001;28;20204;-61
2023/01/18 08:15:39;;;;;;;12.03;9.20;;;;;;;;;;5004194;28;20214;-60
2023/01/18 08:18:07;;;;;;;15.43;9.67;;;;;;;;;;5007289;28;20201;-59
2023/01/18 08:20:36;;;;;;;15.00;9.73;;;;;;;;;;5004298;28;20211;-62
2023/01/18 08:23:03;;;;;;;17.60;9.30;;;;;;;;;;5004749;28;20232;-60
2023/01/18 08:25:32;;;;;;;11.07;9.03;;;;;;;;;;5004066;28;20204;-61
2023/01/18 08:28:00;;;;;;;12.63;9.50;;;;;;;;;;4998863;28;20216;-61
2023/01/18 08:30:27;;;;;;;11.53;9.47;;;;;;;;;;5000054;28;20521;-59
2023/01/18 08:32:56;;;;;;;10.87;9.00;;;;;;;;;;5005924;28;20236;-61
2023/01/18 08:35:23;;;;;;;13.07;9.43;;;;;;;;;;4998269;28;20271;-61
2023/01/18 08:37:53;;;;;;;13.33;10.60;;;;;;;;;;5002825;28;20206;-62
2023/01/18 08:40:20;;;;;;;14.63;9.93;;;;;;;;;;4998823;28;20213;-62
2023/01/18 08:42:48;;;;;;;16.57;10.67;;;;;;;;;;5005434;28;20236;-59
2023/01/18 08:45:16;;;;;;;14.40;11.10;;;;;;;;;;5000086;28;20300;-61
2023/01/18 08:47:43;;;;;;;15.10;10.53;;;;;;;;;;5005291;28;20212;-61
2023/01/18 08:50:11;;;;;;;16.07;11.30;;;;;;;;;;4994782;28;20201;-61
2023/01/18 08:52:38;;;;;;;16.50;11.17;;;;;;;;;;4996325;28;20197;-61
2023/01/18 08:55:07;;;;;;;16.13;11.93;;;;;;;;;;4997657;28;20243;-61
2023/01/18 08:57:34;;;;;;;17.17;12.00;;;;;;;;;;4995969;28;20219;-61
2023/01/18 09:00:03;;;;;;;18.90;12.87;;;;;;;;;;5000748;28;20206;-62
2023/01/18 09:02:30;;;;;;;18.47;11.40;;;;;;;;;;5002948;28;20217;-61
2023/01/18 09:04:57;;;;;;;15.80;9.93;;;;;;;;;;4999416;28;20205;-61
2023/01/18 09:07:24;;;;;;;14.70;10.70;;;;;;;;;;4999469;28;20208;-61
2023/01/18 09:09:52;;;;;;;16.57;10.10;;;;;;;;;;4993196;28;20212;-59
2023/01/18 09:12:20;;;;;;;15.13;10.50;;;;;;;;;;5001311;28;20201;-61
2023/01/18 09:14:47;;;;;;;18.20;11.33;;;;;;;;;;4998869;28;20207;-61
2023/01/18 09:17:16;;;;;;;14.03;10.97;;;;;;;;;;5003129;28;20335;-61
2023/01/18 09:19:44;;;;;;;16.10;11.70;;;;;;;;;;4996323;28;20209;-61
2023/01/18 09:22:11;;;;;;;15.80;11.00;;;;;;;;;;4999877;28;20233;-62
2023/01/18 09:24:40;;;;;;;18.50;11.07;;;;;;;;;;4997166;28;20210;-61
2023/01/18 09:27:07;;;;;;;15.40;11.07;;;;;;;;;;5004434;28;20240;-61
2023/01/18 09:29:36;;;;;;;14.80;11.10;;;;;;;;;;4991529;28;20201;-62
2023/01/18 09:32:03;;;;;;;14.27;10.40;;;;;;;;;;5003009;28;20209;-62
2023/01/18 09:34:30;;;;;;;15.60;10.90;;;;;;;;;;5004470;28;20208;-61
2023/01/18 09:36:57;;;;;;;15.90;8.93;;;;;;;;;;4999328;28;20208;-61
2023/01/18 09:39:24;;;;;;;14.50;8.80;;;;;;;;;;4995629;28;20205;-57
2023/01/18 09:41:56;;;;;;;13.80;8.20;;;;;;;;;;4995243;28;20197;-61
2023/01/18 09:44:25;;;;;;;15.40;8.60;;;;;;;;;;5002783;28;20205;-61
2023/01/18 09:46:55;;;;;;;11.37;8.30;;;;;;;;;;5002413;28;20209;-61
2023/01/18 09:49:26;;;;;;;13.97;8.50;;;;;;;;;;4997044;28;20581;-60
2023/01/18 09:51:59;;;;;;;14.10;9.07;;;;;;;;;;5003005;28;20215;-60
2023/01/18 09:54:32;;;;;;;15.70;8.90;;;;;;;;;;4995423;28;20201;-61
2023/01/18 09:57:02;;;;;;;17.13;9.77;;;;;;;;;;5000923;28;20209;-60
2023/01/18 09:59:32;;;;;;;14.00;9.50;;;;;;;;;;4993899;28;20291;-59
2023/01/18 10:02:02;;;;;;;16.20;9.80;;;;;;;;;;4986810;28;20224;-59
2023/01/18 10:04:32;;;;;;;17.80;9.83;;;;;;;;;;4997402;28;20206;-60
2023/01/18 10:07:00;;;;;;;12.73;8.73;;;;;;;;;;4998191;28;20213;-60
2023/01/18 10:09:29;;;;;;;12.73;8.93;;;;;;;;;;5000618;28;20201;-60
2023/01/18 10:11:58;;;;;;;12.43;9.47;;;;;;;;;;4998344;28;20211;-60
2023/01/18 10:14:35;;;;;;;14.30;10.20;;;;;;;;;;5000255;28;20209;-59
2023/01/18 10:17:05;;;;;;;11.40;9.50;;;;;;;;;;4998596;28;20213;-60
2023/01/18 10:19:33;;;;;;;17.57;10.20;;;;;;;;;;5003139;28;20291;-61
2023/01/18 10:22:05;;;;;;;14.30;9.93;;;;;;;;;;4998612;28;20647;-60
2023/01/18 10:24:42;;;;;;;15.83;9.90;;;;;;;;;;5005791;28;20201;-57
2023/01/18 10:27:16;;;;;;;15.23;9.83;;;;;;;;;;4996223;28;20208;-59
2023/01/18 10:29:49;;;;;;;14.20;9.77;;;;;;;;;;5003663;28;20226;-60
2023/01/18 10:32:20;;;;;;;14.63;9.67;;;;;;;;;;5006868;28;20217;-60
2023/01/18 10:34:50;;;;;;;16.30;10.13;;;;;;;;;;5003453;28;20231;-59
2023/01/18 10:37:22;;;;;;;14.73;10.00;;;;;;;;;;4998073;28;20291;-54
2023/01/18 10:39:51;;;;;;;13.90;8.70;;;;;;;;;;4995986;28;20950;-59
2023/01/18 10:42:21;;;;;;;16.40;9.60;;;;;;;;;;5000387;28;20233;-59
2023/01/18 10:44:48;;;;;;;12.57;9.17;;;;;;;;;;5004675;28;20209;-59
2023/01/18 10:47:18;;;;;;;12.00;8.10;;;;;;;;;;5003856;28;20223;-59
2023/01/18 10:49:47;;;;;;;14.13;9.07;;;;;;;;;;5000290;28;20205;-57
2023/01/18 10:52:18;;;;;;;16.23;9.20;;;;;;;;;;5003525;28;20240;-60
2023/01/18 10:54:50;;;;;;;11.63;9.13;;;;;;;;;;4997655;28;20220;-60
2023/01/18 10:57:21;;;;;;;17.37;10.37;;;;;;;;;;5006340;28;20287;-58
2023/01/18 10:59:51;;;;;;;11.73;9.50;;;;;;;;;;5003347;28;20656;-60
2023/01/18 11:02:23;;;;;;;12.00;9.53;;;;;;;;;;4998240;28;20233;-58
2023/01/18 11:04:55;;;;;;;9.97;8.73;;;;;;;;;;5005021;28;20231;-59
2023/01/18 11:07:24;;;;;;;11.20;9.03;;;;;;;;;;5000687;28;20216;-58
2023/01/18 11:09:54;;;;;;;15.77;9.93;;;;;;;;;;5006573;28;20212;-59
2023/01/18 11:12:40;;;;;;;14.37;9.33;;;;;;;;;;5006271;28;20287;-60
2023/01/18 11:15:28;;;;;;;11.90;9.83;;;;;;;;;;5007338;28;20236;-60
2023/01/18 11:18:05;;;;;;;15.13;9.80;;;;;;;;;;4998545;28;20221;-59
2023/01/18 11:20:35;;;;;;;11.47;9.03;;;;;;;;;;5008816;28;20204;-60
2023/01/18 11:23:03;;;;;;;16.47;9.70;;;;;;;;;;5008068;28;20241;-59
2023/01/18 11:25:36;;;;;;;15.07;9.97;;;;;;;;;;5006472;28;20201;-60
2023/01/18 11:28:06;;;;;;;13.57;9.33;;;;;;;;;;5004020;28;20204;-60
2023/01/18 11:30:34;;;;;;;13.27;10.03;;;;;;;;;;5003187;28;20207;-59
2023/01/18 11:33:01;;;;;;;14.07;8.60;;;;;;;;;;5006959;28;20260;-60
2023/01/18 11:35:31;;;;;;;13.40;9.03;;;;;;;;;;5002436;28;20256;-59
2023/01/18 11:37:59;;;;;;;13.87;9.20;;;;;;;;;;5003283;28;20204;-59
2023/01/18 11:40:27;;;;;;;10.77;8.90;;;;;;;;;;5000741;28;20197;-59
2023/01/18 11:42:57;;;;;;;11.07;9.07;;;;;;;;;;5008005;28;20316;-59
2023/01/18 11:45:26;;;;;;;9.30;7.87;;;;;;;;;;5001769;28;20267;-58
2023/01/18 11:48:01;;;;;;;11.60;7.97;;;;;;;;;;5001410;28;20297;-59
2023/01/18 11:50:32;;;;;;;10.77;7.80;;;;;;;;;;5005621;28;20255;-58
2023/01/18 11:53:05;;;;;;;14.07;8.53;;;;;;;;;;5000516;28;20204;-58
2023/01/18 11:55:34;;;;;;;11.03;7.90;;;;;;;;;;5001075;28;20202;-59
2023/01/18 11:58:03;;;;;;;11.30;8.07;;;;;;;;;;5001391;28;20223;-60
2023/01/18 12:00:38;;;;;;;11.40;7.17;;;;;;;;;;5010671;28;20204;-60
2023/01/18 12:03:15;;;;;;;9.13;7.43;;;;;;;;;;4999341;28;20257;-59
2023/01/18 12:05:48;;;;;;;10.80;7.60;;;;;;;;;;5004609;28;20212;-59
2023/01/18 12:08:23;;;;;;;11.50;8.50;;;;;;;;;;5003279;28;20231;-59
2023/01/18 12:10:55;;;;;;;10.00;8.07;;;;;;;;;;5000902;28;20201;-58
2023/01/18 12:13:30;;;;;;;10.33;8.53;;;;;;;;;;5002294;28;20217;-60
2023/01/18 12:16:03;;;;;;;13.60;8.87;;;;;;;;;;4998222;28;20223;-59
2023/01/18 12:18:38;;;;;;;12.83;9.17;;;;;;;;;;5007006;28;20196;-58
2023/01/18 12:21:08;;;;;;;11.43;9.00;;;;;;;;;;5000027;28;20211;-59
2023/01/18 12:23:48;;;;;;;11.83;8.60;;;;;;;;;;5003016;28;20217;-60
2023/01/18 12:26:23;;;;;;;13.30;8.07;;;;;;;;;;4997429;28;20219;-60
2023/01/18 12:29:08;;;;;;;13.50;9.43;;;;;;;;;;5009093;28;20328;-60
2023/01/18 12:31:45;;;;;;;11.17;9.13;;;;;;;;;;5005608;28;20204;-55
2023/01/18 12:34:14;;;;;;;10.20;8.10;;;;;;;;;;4997994;28;20197;-61
2023/01/18 12:36:51;;;;;;;14.43;8.43;;;;;;;;;;5001812;28;20212;-61
2023/01/18 12:39:25;;;;;;;10.63;7.50;;;;;;;;;;5000475;28;20201;-60
2023/01/18 12:41:58;;;;;;;11.03;7.63;;;;;;;;;;5003360;28;20209;-60
2023/01/18 12:44:42;;;;;;;7.37;6.37;;;;;;;;;;5005657;28;20214;-61
2023/01/18 12:47:16;;;;;;;8.20;6.60;;;;;;;;;;4998544;28;20244;-60
2023/01/18 12:49:46;;;;;;;10.63;6.37;;;;;;;;;;4996811;28;20288;-59
2023/01/18 12:52:16;;;;;;;6.60;5.87;;;;;;;;;;4997149;28;20213;-59
2023/01/18 12:54:45;;;;;;;7.10;6.40;;;;;;;;;;5002707;28;20221;-57
2023/01/18 12:57:15;;;;;;;9.27;6.53;;;;;;;;;;4995327;28;20197;-60
2023/01/18 12:59:45;;;;;;;8.40;5.90;;;;;;;;;;4983261;28;20205;-56
2023/01/18 13:02:21;;;;;;;7.80;6.30;;;;;;;;;;4984568;28;20202;-58
2023/01/18 13:04:53;;;;;;;7.97;5.70;;;;;;;;;;4990347;28;20228;-60
2023/01/18 13:07:27;;;;;;;7.40;5.57;;;;;;;;;;4989328;28;20208;-56
2023/01/18 13:09:55;;;;;;;7.37;4.60;;;;;;;;;;4993230;28;20217;-56
2023/01/18 13:12:22;;;;;;;5.20;4.27;;;;;;;;;;4995245;28;20201;-58
2023/01/18 13:14:51;;;;;;;7.10;5.00;;;;;;;;;;4999383;28;20213;-59
2023/01/18 13:17:21;;;;;;;5.10;4.53;;;;;;;;;;4997093;28;20210;-57
2023/01/18 13:19:53;;;;;;;6.57;4.43;;;;;;;;;;4994620;28;20350;-59
2023/01/18 13:22:27;;;;;;;6.20;4.40;;;;;;;;;;4998648;28;20233;-60
2023/01/18 13:25:07;;;;;;;6.90;4.50;;;;;;;;;;4991934;28;20489;-59
2023/01/18 13:27:36;;;;;;;7.40;4.93;;;;;;;;;;4997509;28;20227;-58
2023/01/18 13:30:08;;;;;;;6.07;4.80;;;;;;;;;;4987013;28;20214;-60
2023/01/18 13:32:36;;;;;;;6.10;5.13;;;;;;;;;;4992021;28;20204;-58
2023/01/18 13:35:06;;;;;;;6.00;4.83;;;;;;;;;;4990641;28;20194;-58
2023/01/18 13:37:46;;;;;;;7.00;4.93;;;;;;;;;;4990632;28;20311;-57
2023/01/18 13:40:27;;;;;;;5.93;4.73;;;;;;;;;;4989428;28;20212;-58
2023/01/18 13:42:54;;;;;;;5.47;4.50;;;;;;;;;;4986371;28;20212;-58
2023/01/18 13:45:22;;;;;;;4.87;3.93;;;;;;;;;;4987372;28;20244;-58
2023/01/18 13:47:53;;;;;;;4.80;4.10;;;;;;;;;;4996489;28;20203;-58
2023/01/18 13:50:41;;;;;;;6.40;4.30;;;;;;;;;;4993098;28;20213;-59
2023/01/18 13:53:23;;;;;;;5.33;3.97;;;;;;;;;;4995133;28;20292;-58
2023/01/18 13:55:57;;;;;;;4.80;3.77;;;;;;;;;;4993078;28;20209;-59
2023/01/18 13:58:25;;;;;;;8.37;4.37;;;;;;;;;;4988862;28;20201;-59
2023/01/18 14:00:53;;;;;;;4.53;4.00;;;;;;;;;;4992698;28;20205;-57
2023/01/18 14:03:22;;;;;;;4.00;3.50;;;;;;;;;;4992832;28;20215;-57
2023/01/18 14:05:49;;;;;;;4.47;4.07;;;;;;;;;;4992919;28;20217;-59
2023/01/18 14:08:20;;;;;;;5.00;4.20;;;;;;;;;;4990540;28;20212;-56
2023/01/18 14:10:51;;;;;;;5.93;4.23;;;;;;;;;;4994956;28;20201;-58
2023/01/18 14:13:39;;;;;;;4.80;4.03;;;;;;;;;;4986426;28;20263;-57
2023/01/18 14:16:06;;;;;;;6.83;4.20;;;;;;;;;;4988609;28;20211;-55
2023/01/18 14:18:33;;;;;;;5.87;4.87;;;;;;;;;;4987464;28;20213;-56
2023/01/18 14:21:15;;;;;;;4.83;4.00;;;;;;;;;;4988313;28;20209;-55
2023/01/18 14:24:13;;;;;;;6.13;3.77;;;;;;;;;;4985108;28;20248;-55
2023/01/18 14:26:43;;;;;;;5.73;3.80;;;;;;;;;;4992670;28;20365;-57
2023/01/18 14:29:13;;;;;;;4.77;3.57;;;;;;;;;;5001041;28;20240;-58
2023/01/18 14:31:43;;;;;;;4.10;3.50;;;;;;;;;;4986369;28;20216;-55
2023/01/18 14:34:31;;;;;;;4.63;3.43;;;;;;;;;;5004926;28;20235;-58
2023/01/18 14:36:58;;;;;;;3.80;3.30;;;;;;;;;;4994728;28;20204;-56
2023/01/18 14:39:28;;;;;;;4.50;3.20;;;;;;;;;;4990998;28;20219;-58
2023/01/18 14:41:59;;;;;;;5.00;3.30;;;;;;;;;;4984987;28;20263;-57
2023/01/18 14:44:27;;;;;;;6.63;4.40;;;;;;;;;;4990079;28;20496;-60
2023/01/18 14:46:56;;;;;;;4.93;3.73;;;;;;;;;;4987612;28;20201;-57
2023/01/18 14:49:28;;;;;;;5.43;3.63;;;;;;;;;;4991235;28;20519;-54
2023/01/18 14:51:56;;;;;;;6.50;4.03;;;;;;;;;;4988665;28;20534;-54
2023/01/18 14:54:24;;;;;;;8.20;4.83;;;;;;;;;;4997102;28;20219;-55
2023/01/18 14:56:52;;;;;;;6.33;4.20;;;;;;;;;;4988057;28;20432;-57
2023/01/18 14:59:22;;;;;;;7.07;3.87;;;;;;;;;;4987570;28;20212;-54
2023/01/18 15:01:55;;;;;;;6.13;3.90;;;;;;;;;;4984648;28;20237;-52
2023/01/18 15:04:23;;;;;;;5.47;3.70;;;;;;;;;;4985382;28;20232;-54
2023/01/18 15:06:53;;;;;;;5.30;3.30;;;;;;;;;;4990458;28;20201;-55
2023/01/18 15:09:21;;;;;;;5.23;3.83;;;;;;;;;;4988433;28;20229;-55
2023/01/18 15:11:49;;;;;;;5.30;3.87;;;;;;;;;;4990730;28;20217;-57
2023/01/18 15:14:18;;;;;;;5.20;3.63;;;;;;;;;;4986857;28;20237;-51
2023/01/18 15:16:50;;;;;;;4.40;3.60;;;;;;;;;;4991898;28;20213;-53
2023/01/18 15:19:19;;;;;;;4.03;3.33;;;;;;;;;;4987061;28;20243;-55
2023/01/18 15:21:46;;;;;;;4.73;3.87;;;;;;;;;;4987946;28;20245;-56